sensor_id;sensor_type;location;lat;lon;timestamp;P1;durP1;ratioP1;P2;durP2;ratioP2
79779;SDS011;69258;52.050;10.334;2023-06-01T00:02:43;1.77;;;1.67;;
79779;SDS011;69258;52.050;10.334;2023-06-01T00:17:45;2.43;;;1.97;;
79779;SDS011;69258;52.050;10.334;2023-06-01T00:32:47;2.20;;;2.00;;
79779;SDS011;69258;52.050;10.334;2023-06-01T00:47:49;3.23;;;1.93;;
79779;SDS011;69258;52.050;10.334;2023-06-01T01:02:51;3.13;;;2.00;;
79779;SDS011;69258;52.050;10.334;2023-06-01T01:17:54;3.70;;;2.40;;
79779;SDS011;69258;52.050;10.334;2023-06-01T01:33:03;2.90;;;1.90;;
79779;SDS011;69258;52.050;10.334;2023-06-01T01:48:10;3.07;;;2.10;;
79779;SDS011;69258;52.050;10.334;2023-06-01T02:03:19;3.30;;;2.20;;
79779;SDS011;69258;52.050;10.334;2023-06-01T02:18:21;3.23;;;2.40;;
79779;SDS011;69258;52.050;10.334;2023-06-01T02:33:23;4.73;;;2.40;;
79779;SDS011;69258;52.050;10.334;2023-06-01T02:48:24;3.10;;;2.40;;
79779;SDS011;69258;52.050;10.334;2023-06-01T03:03:26;4.30;;;2.57;;
79779;SDS011;69258;52.050;10.334;2023-06-01T03:18:29;4.20;;;3.00;;
79779;SDS011;69258;52.050;10.334;2023-06-01T03:33:31;4.17;;;2.83;;
79779;SDS011;69258;52.050;10.334;2023-06-01T03:48:32;4.57;;;2.70;;
79779;SDS011;69258;52.050;10.334;2023-06-01T04:03:34;7.97;;;4.10;;
79779;SDS011;69258;52.050;10.334;2023-06-01T04:18:36;7.97;;;4.17;;
79779;SDS011;69258;52.050;10.334;2023-06-01T04:33:38;11.20;;;4.70;;
79779;SDS011;69258;52.050;10.334;2023-06-01T04:48:40;10.47;;;5.20;;
79779;SDS011;69258;52.050;10.334;2023-06-01T05:03:42;10.50;;;4.90;;
79779;SDS011;69258;52.050;10.334;2023-06-01T05:18:45;8.97;;;5.00;;
79779;SDS011;69258;52.050;10.334;2023-06-01T05:33:46;10.27;;;5.07;;
79779;SDS011;69258;52.050;10.334;2023-06-01T05:48:48;12.93;;;5.07;;
79779;SDS011;69258;52.050;10.334;2023-06-01T06:03:50;15.40;;;5.87;;
79779;SDS011;69258;52.050;10.334;2023-06-01T06:18:53;10.33;;;5.03;;
79779;SDS011;69258;52.050;10.334;2023-06-01T06:33:54;10.80;;;4.30;;
79779;SDS011;69258;52.050;10.334;2023-06-01T06:48:57;6.77;;;4.27;;
79779;SDS011;69258;52.050;10.334;2023-06-01T07:03:58;9.97;;;4.47;;
79779;SDS011;69258;52.050;10.334;2023-06-01T07:19:00;8.20;;;4.00;;
79779;SDS011;69258;52.050;10.334;2023-06-01T07:34:02;7.97;;;3.67;;
79779;SDS011;69258;52.050;10.334;2023-06-01T07:49:04;10.07;;;4.17;;
79779;SDS011;69258;52.050;10.334;2023-06-01T08:04:06;5.00;;;3.40;;
79779;SDS011;69258;52.050;10.334;2023-06-01T08:19:08;6.80;;;3.53;;
79779;SDS011;69258;52.050;10.334;2023-06-01T08:34:10;6.23;;;3.37;;
79779;SDS011;69258;52.050;10.334;2023-06-01T08:49:12;5.37;;;3.37;;
79779;SDS011;69258;52.050;10.334;2023-06-01T09:04:16;7.00;;;3.80;;
79779;SDS011;69258;52.050;10.334;2023-06-01T09:19:18;5.27;;;3.47;;
79779;SDS011;69258;52.050;10.334;2023-06-01T09:34:20;5.43;;;3.40;;
79779;SDS011;69258;52.050;10.334;2023-06-01T10:04:31;4.17;;;3.40;;
79779;SDS011;69258;52.050;10.334;2023-06-01T10:19:38;5.80;;;3.37;;
79779;SDS011;69258;52.050;10.334;2023-06-01T11:04:51;5.50;;;3.40;;
79779;SDS011;69258;52.050;10.334;2023-06-01T11:19:57;4.70;;;3.50;;
79779;SDS011;69258;52.050;10.334;2023-06-01T11:35:00;4.93;;;3.23;;
79779;SDS011;69258;52.050;10.334;2023-06-01T11:50:21;3.77;;;3.40;;
79779;SDS011;69258;52.050;10.334;2023-06-01T12:05:23;9.97;;;3.93;;
79779;SDS011;69258;52.050;10.334;2023-06-01T12:35:27;5.00;;;3.13;;
79779;SDS011;69258;52.050;10.334;2023-06-01T12:50:29;4.20;;;3.70;;
79779;SDS011;69258;52.050;10.334;2023-06-01T13:05:31;4.77;;;3.60;;
79779;SDS011;69258;52.050;10.334;2023-06-01T13:20:33;4.37;;;3.60;;
79779;SDS011;69258;52.050;10.334;2023-06-01T13:35:35;6.27;;;3.50;;
79779;SDS011;69258;52.050;10.334;2023-06-01T13:50:37;6.07;;;3.80;;
79779;SDS011;69258;52.050;10.334;2023-06-01T14:05:39;5.27;;;3.40;;
79779;SDS011;69258;52.050;10.334;2023-06-01T14:20:45;4.17;;;3.57;;
79779;SDS011;69258;52.050;10.334;2023-06-01T14:35:47;3.60;;;3.30;;
79779;SDS011;69258;52.050;10.334;2023-06-01T14:50:49;3.97;;;3.47;;
79779;SDS011;69258;52.050;10.334;2023-06-01T15:05:51;3.30;;;2.90;;
79779;SDS011;69258;52.050;10.334;2023-06-01T15:20:53;6.80;;;3.37;;
79779;SDS011;69258;52.050;10.334;2023-06-01T15:35:54;5.13;;;3.60;;
79779;SDS011;69258;52.050;10.334;2023-06-01T15:50:56;4.20;;;3.40;;
79779;SDS011;69258;52.050;10.334;2023-06-01T16:05:59;3.23;;;2.93;;
79779;SDS011;69258;52.050;10.334;2023-06-01T16:21:01;3.30;;;2.93;;
79779;SDS011;69258;52.050;10.334;2023-06-01T16:36:03;3.03;;;2.73;;
79779;SDS011;69258;52.050;10.334;2023-06-01T16:51:05;5.23;;;4.40;;
79779;SDS011;69258;52.050;10.334;2023-06-01T17:06:07;17.97;;;10.17;;
79779;SDS011;69258;52.050;10.334;2023-06-01T17:21:09;19.37;;;13.37;;
79779;SDS011;69258;52.050;10.334;2023-06-01T17:36:11;20.90;;;13.87;;
79779;SDS011;69258;52.050;10.334;2023-06-01T17:51:15;20.70;;;13.77;;
79779;SDS011;69258;52.050;10.334;2023-06-01T18:06:16;23.07;;;15.67;;
79779;SDS011;69258;52.050;10.334;2023-06-01T18:21:18;21.63;;;15.17;;
79779;SDS011;69258;52.050;10.334;2023-06-01T18:36:20;24.50;;;17.23;;
79779;SDS011;69258;52.050;10.334;2023-06-01T18:51:24;26.20;;;17.17;;
79779;SDS011;69258;52.050;10.334;2023-06-01T19:06:26;24.80;;;15.90;;
79779;SDS011;69258;52.050;10.334;2023-06-01T19:21:28;24.13;;;16.60;;
79779;SDS011;69258;52.050;10.334;2023-06-01T19:51:46;24.73;;;15.73;;
79779;SDS011;69258;52.050;10.334;2023-06-01T20:06:48;23.10;;;15.03;;
79779;SDS011;69258;52.050;10.334;2023-06-01T20:21:55;22.10;;;12.87;;
79779;SDS011;69258;52.050;10.334;2023-06-01T20:36:58;19.67;;;12.50;;
79779;SDS011;69258;52.050;10.334;2023-06-01T20:52:00;18.57;;;11.80;;
79779;SDS011;69258;52.050;10.334;2023-06-01T21:07:02;18.00;;;11.00;;
79779;SDS011;69258;52.050;10.334;2023-06-01T21:22:05;14.10;;;9.47;;
79779;SDS011;69258;52.050;10.334;2023-06-01T21:37:06;13.73;;;9.50;;
79779;SDS011;69258;52.050;10.334;2023-06-01T21:52:08;13.53;;;8.77;;
79779;SDS011;69258;52.050;10.334;2023-06-01T22:07:10;11.73;;;8.13;;
79779;SDS011;69258;52.050;10.334;2023-06-01T22:22:13;9.93;;;6.93;;
79779;SDS011;69258;52.050;10.334;2023-06-01T22:37:16;10.10;;;7.27;;
79779;SDS011;69258;52.050;10.334;2023-06-01T22:52:18;10.00;;;6.97;;
79779;SDS011;69258;52.050;10.334;2023-06-01T23:07:20;10.67;;;6.07;;
79779;SDS011;69258;52.050;10.334;2023-06-01T23:22:22;7.03;;;5.17;;
79779;SDS011;69258;52.050;10.334;2023-06-01T23:37:27;8.80;;;5.33;;
79779;SDS011;69258;52.050;10.334;2023-06-01T23:52:29;9.80;;;5.47;;
